createdAt,value
2019-03-05T00:00:01.816Z,2.17
2019-03-05T00:02:45.835Z,2.03
2019-03-05T00:05:27.634Z,2.20
2019-03-05T00:08:10.029Z,2.33
2019-03-05T00:10:51.971Z,2.37
2019-03-05T00:13:33.616Z,2.50
2019-03-05T00:16:15.658Z,2.30
2019-03-05T00:18:57.410Z,2.00
2019-03-05T00:21:39.506Z,2.47
2019-03-05T00:24:21.422Z,2.30
2019-03-05T00:27:03.475Z,2.40
2019-03-05T00:29:45.653Z,2.10
2019-03-05T00:32:27.908Z,2.40
2019-03-05T00:35:09.917Z,2.13
2019-03-05T00:37:52.174Z,1.93
2019-03-05T00:40:34.460Z,1.60
2019-03-05T00:43:16.266Z,1.87
2019-03-05T00:45:58.018Z,1.57
2019-03-05T00:48:39.772Z,1.60
2019-03-05T00:51:25.216Z,1.60
2019-03-05T00:54:05.662Z,1.73
2019-03-05T00:57:13.998Z,1.17
2019-03-05T00:59:55.828Z,0.80
2019-03-05T01:02:37.992Z,1.20
2019-03-05T01:05:19.879Z,1.27
2019-03-05T01:08:01.719Z,1.37
2019-03-05T01:10:43.723Z,1.07
2019-03-05T01:13:27.127Z,1.10
2019-03-05T01:16:10.726Z,1.43
2019-03-05T01:18:52.695Z,1.03
2019-03-05T01:21:34.869Z,0.83
2019-03-05T01:24:16.657Z,1.00
2019-03-05T01:26:58.906Z,1.10
2019-03-05T01:29:42.074Z,1.10
2019-03-05T01:32:31.263Z,1.40
2019-03-05T01:35:32.219Z,1.63
2019-03-05T01:38:14.351Z,0.90
2019-03-05T01:41:00.538Z,0.90
2019-03-05T01:43:42.409Z,1.13
2019-03-05T01:46:24.114Z,1.00
2019-03-05T01:49:06.426Z,0.80
2019-03-05T01:51:47.877Z,0.87
2019-03-05T01:54:30.073Z,1.30
2019-03-05T01:57:11.954Z,0.90
2019-03-05T01:59:54.109Z,0.90
2019-03-05T02:02:36.145Z,1.00
2019-03-05T02:05:17.992Z,1.10
2019-03-05T02:08:00.129Z,0.97
2019-03-05T02:10:41.698Z,1.17
2019-03-05T02:13:23.616Z,0.93
2019-03-05T02:16:05.493Z,1.03
2019-03-05T02:18:47.310Z,1.00
2019-03-05T02:21:31.483Z,1.23
2019-03-05T02:24:13.526Z,1.10
2019-03-05T02:26:56.498Z,1.43
2019-03-05T02:29:38.414Z,1.20
2019-03-05T02:32:20.267Z,1.43
2019-03-05T02:35:02.370Z,1.40
2019-03-05T02:37:44.624Z,1.30
2019-03-05T02:40:26.428Z,1.50
2019-03-05T02:43:08.793Z,1.47
2019-03-05T02:45:50.281Z,1.70
2019-03-05T02:48:32.101Z,1.90
2019-03-05T02:51:13.848Z,1.90
2019-03-05T02:53:55.831Z,2.10
2019-03-05T02:56:37.943Z,1.70
2019-03-05T02:59:19.876Z,2.70
2019-03-05T03:05:22.794Z,2.00
2019-03-05T03:07:53.118Z,2.03
2019-03-05T03:10:42.395Z,1.90
2019-03-05T03:13:24.350Z,2.33
2019-03-05T03:16:06.588Z,2.47
2019-03-05T03:18:48.186Z,2.30
2019-03-05T03:21:30.122Z,2.17
2019-03-05T03:24:14.384Z,2.60
2019-03-05T03:26:55.958Z,2.30
2019-03-05T03:29:38.004Z,2.23
2019-03-05T03:32:20.233Z,2.33
2019-03-05T03:34:50.441Z,2.17
2019-03-05T03:37:32.692Z,2.73
2019-03-05T03:40:14.819Z,2.13
2019-03-05T03:42:56.731Z,2.10
2019-03-05T03:45:38.547Z,2.17
2019-03-05T03:48:20.537Z,2.67
2019-03-05T03:51:02.542Z,2.43
2019-03-05T03:53:44.391Z,2.17
2019-03-05T03:56:26.316Z,2.23
2019-03-05T03:59:08.226Z,2.00
2019-03-05T04:01:50.441Z,2.67
2019-03-05T04:04:32.496Z,2.60
2019-03-05T04:07:14.265Z,2.40
2019-03-05T04:09:56.502Z,2.60
2019-03-05T04:12:37.891Z,2.40
2019-03-05T04:15:19.791Z,2.53
2019-03-05T04:18:01.538Z,2.50
2019-03-05T04:23:45.417Z,2.43
2019-03-05T04:26:27.478Z,2.13
2019-03-05T04:29:09.426Z,2.57
2019-03-05T04:31:51.434Z,2.40
2019-03-05T04:34:33.172Z,2.23
2019-03-05T04:37:14.885Z,2.33
2019-03-05T04:39:56.505Z,2.33
2019-03-05T04:42:38.482Z,2.10
2019-03-05T04:45:20.790Z,2.43
2019-03-05T04:48:02.418Z,2.23
2019-03-05T04:50:50.928Z,2.60
2019-03-05T04:53:32.951Z,2.33
2019-03-05T04:56:14.569Z,2.43
2019-03-05T04:58:56.531Z,2.10
2019-03-05T05:01:38.665Z,2.40
2019-03-05T05:04:20.414Z,2.17
2019-03-05T05:07:02.567Z,2.20
2019-03-05T05:09:44.510Z,2.33
2019-03-05T05:12:26.317Z,2.80
2019-03-05T05:15:08.210Z,2.67
2019-03-05T05:17:50.201Z,2.27
2019-03-05T05:20:34.106Z,2.53
2019-03-05T05:23:16.184Z,2.50
2019-03-05T05:25:58.015Z,2.60
2019-03-05T05:28:40.040Z,2.70
2019-03-05T05:31:22.923Z,2.73
2019-03-05T05:34:04.791Z,2.67
2019-03-05T05:36:46.747Z,2.47
2019-03-05T05:39:28.467Z,2.57
2019-03-05T05:42:10.339Z,2.43
2019-03-05T05:44:51.856Z,2.60
2019-03-05T05:47:33.929Z,2.40
2019-03-05T05:50:04.283Z,2.60
2019-03-05T05:52:46.167Z,2.57
2019-03-05T05:55:29.290Z,2.43
2019-03-05T05:58:10.794Z,2.53
2019-03-05T06:00:54.883Z,2.23
2019-03-05T06:03:37.925Z,2.80
2019-03-05T06:06:19.867Z,2.57
2019-03-05T06:09:01.980Z,2.33
2019-03-05T06:11:45.348Z,2.70
2019-03-05T06:14:27.466Z,2.47
2019-03-05T06:17:09.885Z,2.50
2019-03-05T06:19:51.842Z,2.30
2019-03-05T06:22:34.010Z,2.73
2019-03-05T06:25:04.966Z,2.40
2019-03-05T06:27:47.077Z,2.63
2019-03-05T06:30:29.790Z,2.30
2019-03-05T06:33:11.651Z,2.40
2019-03-05T06:35:55.321Z,2.23
2019-03-05T06:38:37.182Z,2.43
2019-03-05T06:41:19.532Z,2.20
2019-03-05T06:44:01.530Z,2.23
2019-03-05T06:46:42.882Z,2.20
2019-03-05T06:49:25.224Z,2.10
2019-03-05T06:52:11.805Z,2.53
2019-03-05T06:54:54.287Z,2.10
2019-03-05T06:57:36.237Z,1.77
2019-03-05T07:00:33.899Z,2.33
2019-03-05T07:03:16.150Z,2.13
2019-03-05T07:05:58.501Z,2.00
2019-03-05T07:08:40.614Z,2.40
2019-03-05T07:11:49.091Z,2.03
2019-03-05T07:14:31.174Z,2.50
2019-03-05T07:17:13.081Z,2.00
2019-03-05T07:19:58.232Z,2.10
2019-03-05T07:22:38.626Z,2.00
2019-03-05T07:25:20.707Z,2.00
2019-03-05T07:28:02.382Z,1.90
2019-03-05T07:30:44.235Z,1.93
2019-03-05T07:33:26.184Z,1.63
2019-03-05T07:36:08.184Z,2.30
2019-03-05T07:38:50.158Z,1.77
2019-03-05T07:41:32.252Z,1.60
2019-03-05T07:44:14.334Z,1.77
2019-03-05T07:46:56.214Z,1.37
2019-03-05T07:49:43.881Z,1.30
2019-03-05T07:52:22.022Z,1.80
2019-03-05T07:55:13.271Z,1.50
2019-03-05T07:57:48.150Z,1.23
2019-03-05T08:00:30.169Z,1.17
2019-03-05T08:03:12.063Z,1.40
2019-03-05T08:05:53.824Z,1.20
2019-03-05T08:08:35.723Z,1.07
2019-03-05T08:11:17.891Z,1.00
2019-03-05T08:13:59.732Z,1.10
2019-03-05T08:16:41.526Z,1.03
2019-03-05T08:19:23.481Z,0.90
2019-03-05T08:22:05.712Z,0.93
2019-03-05T08:24:47.545Z,0.93
2019-03-05T08:27:17.976Z,1.00
2019-03-05T08:30:14.367Z,0.87
2019-03-05T08:32:57.802Z,0.70
2019-03-05T08:35:39.651Z,1.00
2019-03-05T08:38:21.938Z,1.07
2019-03-05T08:41:05.670Z,0.80
2019-03-05T08:43:48.174Z,0.83
2019-03-05T08:46:19.443Z,0.90
2019-03-05T08:49:01.468Z,0.83
2019-03-05T08:51:43.268Z,0.80
2019-03-05T08:54:15.189Z,0.73
2019-03-05T08:57:04.594Z,0.80
2019-03-05T08:59:46.409Z,1.07
2019-03-05T09:02:28.361Z,0.70
2019-03-05T09:05:10.375Z,0.80
2019-03-05T09:07:52.358Z,0.90
2019-03-05T09:13:44.482Z,0.90
2019-03-05T09:16:26.094Z,0.80
2019-03-05T09:19:08.422Z,1.07
2019-03-05T09:21:50.622Z,0.87
2019-03-05T09:24:20.910Z,0.63
2019-03-05T09:27:10.213Z,0.80
2019-03-05T09:29:53.251Z,0.90
2019-03-05T09:32:23.470Z,0.70
2019-03-05T09:35:05.945Z,0.70
2019-03-05T09:37:48.122Z,1.00
2019-03-05T09:40:30.274Z,0.80
2019-03-05T09:43:14.149Z,0.70
2019-03-05T09:45:56.003Z,0.90
2019-03-05T09:48:37.750Z,0.73
2019-03-05T09:51:20.155Z,0.77
2019-03-05T09:54:02.152Z,1.20
2019-03-05T09:56:43.902Z,0.80
2019-03-05T09:59:26.223Z,1.10
2019-03-05T10:04:49.749Z,1.00
2019-03-05T10:07:31.895Z,0.80
2019-03-05T10:10:14.025Z,1.30
2019-03-05T10:12:59.076Z,0.93
2019-03-05T10:15:40.411Z,0.90
2019-03-05T10:18:22.522Z,0.60
2019-03-05T10:21:04.626Z,0.80
2019-03-05T10:23:46.615Z,1.17
2019-03-05T10:26:30.756Z,1.53
2019-03-05T10:29:12.815Z,1.60
2019-03-05T10:31:55.644Z,1.13
2019-03-05T10:34:37.976Z,0.80
2019-03-05T10:37:13.726Z,0.83
2019-03-05T10:40:18.648Z,0.80
2019-03-05T10:43:08.308Z,0.70
2019-03-05T10:45:44.601Z,0.70
2019-03-05T10:48:30.400Z,0.70
2019-03-05T10:51:12.078Z,0.70
2019-03-05T10:53:55.646Z,0.70
2019-03-05T10:56:38.124Z,0.73
2019-03-05T10:59:20.219Z,0.60
2019-03-05T11:02:01.954Z,0.70
2019-03-05T11:04:45.911Z,0.80
2019-03-05T11:07:27.493Z,0.50
2019-03-05T11:10:09.715Z,0.70
2019-03-05T11:12:51.950Z,0.60
2019-03-05T11:15:34.052Z,0.73
2019-03-05T11:18:16.188Z,0.50
2019-03-05T11:20:58.139Z,0.60
2019-03-05T11:23:40.573Z,0.70
2019-03-05T11:26:22.739Z,0.50
2019-03-05T11:29:04.962Z,0.60
2019-03-05T11:31:46.882Z,0.90
2019-03-05T11:34:29.308Z,0.77
2019-03-05T11:37:11.370Z,0.90
2019-03-05T11:39:55.332Z,0.77
2019-03-05T11:42:37.227Z,0.80
2019-03-05T11:45:19.299Z,0.87
2019-03-05T11:48:01.220Z,0.80
2019-03-05T11:50:43.512Z,1.20
2019-03-05T11:53:26.319Z,1.13
2019-03-05T11:56:08.412Z,1.20
2019-03-05T11:58:57.851Z,1.30
2019-03-05T12:01:48.442Z,1.10
2019-03-05T12:04:30.379Z,1.00
2019-03-05T12:07:13.674Z,0.90
2019-03-05T12:09:55.892Z,1.20
2019-03-05T12:12:37.535Z,1.00
2019-03-05T12:15:19.413Z,0.80
2019-03-05T12:18:01.247Z,1.03
2019-03-05T12:20:43.059Z,1.07
2019-03-05T12:23:24.834Z,1.30
2019-03-05T12:26:06.683Z,0.80
2019-03-05T12:28:48.179Z,1.10
2019-03-05T12:31:30.338Z,1.00
2019-03-05T12:34:12.349Z,1.20
2019-03-05T12:36:55.345Z,1.07
2019-03-05T12:39:37.414Z,1.20
2019-03-05T12:42:19.104Z,0.90
2019-03-05T12:45:01.031Z,0.67
2019-03-05T12:47:43.002Z,1.00
2019-03-05T12:50:24.804Z,1.00
2019-03-05T12:53:06.706Z,0.70
2019-03-05T12:55:48.579Z,0.67
2019-03-05T12:58:30.609Z,0.80
2019-03-05T13:01:12.744Z,0.93
2019-03-05T13:03:54.427Z,0.70
2019-03-05T13:06:36.587Z,0.73
2019-03-05T13:09:19.564Z,0.87
2019-03-05T13:12:01.544Z,1.40
2019-03-05T13:14:43.866Z,1.60
2019-03-05T13:17:27.370Z,1.07
2019-03-05T13:20:09.425Z,0.93
2019-03-05T13:22:51.173Z,1.20
2019-03-05T13:25:33.166Z,1.20
2019-03-05T13:28:15.223Z,1.03
2019-03-05T13:31:00.484Z,0.90
2019-03-05T13:33:42.003Z,1.13
2019-03-05T13:36:24.307Z,1.30
2019-03-05T13:39:06.597Z,1.10
2019-03-05T13:41:53.567Z,0.90
2019-03-05T13:44:35.472Z,1.10
2019-03-05T13:47:17.487Z,0.97
2019-03-05T13:50:26.097Z,1.10
2019-03-05T13:53:14.745Z,0.80
2019-03-05T13:55:51.142Z,1.10
2019-03-05T13:58:33.491Z,0.80
2019-03-05T14:01:15.767Z,0.90
2019-03-05T14:03:59.213Z,0.93
2019-03-05T14:06:42.532Z,1.00
2019-03-05T14:09:26.148Z,1.17
2019-03-05T14:12:08.430Z,1.10
2019-03-05T14:14:50.794Z,1.03
2019-03-05T14:17:37.123Z,1.00
2019-03-05T14:20:19.392Z,0.93
2019-03-05T14:23:01.259Z,0.97
2019-03-05T14:25:43.445Z,1.20
2019-03-05T14:28:25.819Z,0.83
2019-03-05T14:30:56.180Z,0.90
2019-03-05T14:33:38.391Z,1.10
2019-03-05T14:36:20.618Z,1.00
2019-03-05T14:39:04.112Z,0.97
2019-03-05T14:41:48.042Z,1.27
2019-03-05T14:44:39.430Z,1.00
2019-03-05T14:47:15.135Z,1.30
2019-03-05T14:49:57.051Z,1.10
2019-03-05T14:52:38.985Z,1.10
2019-03-05T14:55:21.423Z,1.13
2019-03-05T14:58:03.796Z,0.93
2019-03-05T15:00:45.943Z,1.17
2019-03-05T15:03:29.060Z,1.00
2019-03-05T15:06:11.511Z,1.07
2019-03-05T15:08:53.465Z,1.70
2019-03-05T15:11:35.571Z,1.43
2019-03-05T15:14:17.642Z,1.70
2019-03-05T15:16:59.039Z,1.60
2019-03-05T15:19:40.811Z,1.50
2019-03-05T15:22:22.695Z,1.50
2019-03-05T15:25:04.887Z,1.70
2019-03-05T15:27:46.967Z,1.50
2019-03-05T15:30:29.302Z,1.27
2019-03-05T15:33:11.455Z,1.60
2019-03-05T15:35:53.944Z,1.47
2019-03-05T15:38:36.013Z,1.17
2019-03-05T15:41:18.045Z,1.40
2019-03-05T15:44:00.472Z,1.60
2019-03-05T15:46:42.358Z,1.90
2019-03-05T15:49:24.336Z,1.43
2019-03-05T15:52:06.386Z,1.60
2019-03-05T15:54:48.722Z,1.70
2019-03-05T15:57:30.723Z,1.37
2019-03-05T16:00:13.796Z,1.50
2019-03-05T16:02:56.367Z,1.60
2019-03-05T16:05:38.159Z,1.30
2019-03-05T16:08:21.008Z,1.37
2019-03-05T16:11:04.170Z,1.77
2019-03-05T16:13:47.304Z,1.53
2019-03-05T16:16:29.362Z,1.50
2019-03-05T16:19:12.457Z,1.60
2019-03-05T16:21:55.594Z,1.37
2019-03-05T16:24:38.867Z,1.40
2019-03-05T16:27:21.199Z,1.30
2019-03-05T16:30:03.278Z,1.40
2019-03-05T16:32:49.279Z,1.30
2019-03-05T16:35:56.602Z,1.07
2019-03-05T16:39:02.670Z,1.07
2019-03-05T16:42:05.108Z,1.30
2019-03-05T16:45:14.490Z,1.20
2019-03-05T16:48:15.535Z,1.20
2019-03-05T16:51:16.360Z,1.20
2019-03-05T16:54:11.264Z,1.60
2019-03-05T16:57:12.329Z,1.43
2019-03-05T17:00:13.354Z,1.20
2019-03-05T17:03:16.184Z,1.37
2019-03-05T17:06:20.579Z,1.37
2019-03-05T17:09:28.065Z,1.50
2019-03-05T17:12:06.076Z,1.40
2019-03-05T17:14:55.712Z,1.30
2019-03-05T17:17:37.888Z,1.30
2019-03-05T17:20:19.923Z,1.60
2019-03-05T17:23:01.869Z,1.50
2019-03-05T17:25:43.929Z,1.80
2019-03-05T17:28:25.727Z,1.80
2019-03-05T17:31:08.834Z,1.90
2019-03-05T17:33:51.340Z,1.80
2019-03-05T17:36:33.651Z,1.90
2019-03-05T17:42:16.202Z,1.90
2019-03-05T17:44:58.142Z,2.00
2019-03-05T17:47:28.417Z,2.23
2019-03-05T17:50:17.826Z,2.23
2019-03-05T17:53:00.009Z,2.10
2019-03-05T17:55:42.010Z,2.47
2019-03-05T17:58:24.378Z,2.30
2019-03-05T18:01:08.185Z,1.90
2019-03-05T18:03:50.754Z,2.10
2019-03-05T18:06:32.503Z,2.77
2019-03-05T18:09:14.539Z,2.60
2019-03-05T18:11:57.594Z,2.90
2019-03-05T18:14:39.704Z,2.27
2019-03-05T18:17:22.239Z,2.13
2019-03-05T18:20:04.147Z,1.70
2019-03-05T18:22:46.145Z,2.07
2019-03-05T18:25:29.097Z,2.13
2019-03-05T18:28:11.436Z,2.43
2019-03-05T18:30:53.465Z,2.23
2019-03-05T18:33:36.822Z,2.40
2019-03-05T18:36:19.195Z,2.40
2019-03-05T18:39:01.512Z,2.20
2019-03-05T18:41:45.238Z,2.07
2019-03-05T18:44:26.936Z,2.30
2019-03-05T18:47:09.292Z,2.33
2019-03-05T18:49:39.762Z,2.33
2019-03-05T18:52:22.182Z,2.47
2019-03-05T18:55:04.251Z,2.50
2019-03-05T18:57:48.019Z,2.03
2019-03-05T19:00:30.290Z,2.77
2019-03-05T19:03:12.638Z,2.53
2019-03-05T19:05:54.432Z,2.57
2019-03-05T19:08:36.538Z,1.97
2019-03-05T19:11:18.470Z,1.77
2019-03-05T19:14:00.822Z,1.90
2019-03-05T19:16:43.572Z,2.40
2019-03-05T19:19:25.809Z,2.00
2019-03-05T19:22:07.817Z,1.63
2019-03-05T19:24:49.679Z,1.60
2019-03-05T19:27:32.403Z,1.60
2019-03-05T19:30:14.821Z,1.73
2019-03-05T19:32:45.696Z,2.20
2019-03-05T19:35:28.122Z,1.67
2019-03-05T19:38:10.176Z,1.40
2019-03-05T19:40:52.623Z,1.67
2019-03-05T19:43:34.815Z,1.80
2019-03-05T19:46:17.030Z,1.90
2019-03-05T19:48:59.431Z,1.73
2019-03-05T19:51:41.390Z,2.10
2019-03-05T19:54:23.434Z,2.10
2019-03-05T19:57:07.318Z,1.80
2019-03-05T19:59:49.446Z,1.80
2019-03-05T20:02:31.713Z,1.67
2019-03-05T20:05:14.071Z,1.97
2019-03-05T20:07:55.992Z,1.93
2019-03-05T20:10:38.170Z,1.90
2019-03-05T20:13:20.014Z,1.77
2019-03-05T20:16:02.149Z,2.40
2019-03-05T20:18:44.113Z,2.00
2019-03-05T20:21:14.614Z,2.50
2019-03-05T20:23:44.897Z,1.87
2019-03-05T20:26:26.529Z,2.17
2019-03-05T20:29:09.239Z,2.20
2019-03-05T20:31:51.718Z,2.03
2019-03-05T20:34:33.373Z,2.37
2019-03-05T20:37:15.352Z,1.70
2019-03-05T20:39:57.134Z,2.03
2019-03-05T20:42:27.578Z,2.10
2019-03-05T20:45:09.855Z,1.70
2019-03-05T20:47:52.040Z,1.80
2019-03-05T20:50:34.038Z,2.20
2019-03-05T20:53:17.257Z,2.10
2019-03-05T20:55:59.471Z,2.10
2019-03-05T20:58:42.008Z,2.00
2019-03-05T21:01:33.437Z,2.27
2019-03-05T21:04:15.669Z,1.90
2019-03-05T21:06:57.964Z,2.03
2019-03-05T21:09:40.157Z,2.40
2019-03-05T21:12:22.461Z,2.20
2019-03-05T21:15:04.761Z,2.30
2019-03-05T21:17:47.758Z,2.30
2019-03-05T21:20:29.835Z,2.60
2019-03-05T21:23:12.188Z,2.17
2019-03-05T21:25:54.596Z,2.27
2019-03-05T21:28:36.778Z,2.67
2019-03-05T21:31:18.581Z,2.30
2019-03-05T21:34:00.829Z,2.43
2019-03-05T21:36:42.543Z,2.47
2019-03-05T21:39:25.230Z,2.53
2019-03-05T21:42:07.290Z,2.50
2019-03-05T21:44:37.654Z,2.93
2019-03-05T21:47:27.023Z,2.20
2019-03-05T21:50:09.267Z,2.50
2019-03-05T21:52:39.733Z,2.50
2019-03-05T21:55:21.625Z,2.80
2019-03-05T21:58:03.814Z,2.47
2019-03-05T22:00:46.047Z,2.57
2019-03-05T22:03:29.294Z,2.30
2019-03-05T22:06:11.495Z,2.30
2019-03-05T22:08:41.979Z,2.83
2019-03-05T22:11:25.834Z,2.10
2019-03-05T22:14:08.822Z,2.60
2019-03-05T22:16:39.442Z,2.27
2019-03-05T22:19:21.860Z,2.70
2019-03-05T22:22:04.031Z,2.60
2019-03-05T22:24:46.038Z,3.17
2019-03-05T22:27:27.830Z,4.73
2019-03-05T22:30:10.272Z,4.63
2019-03-05T22:32:40.642Z,3.43
2019-03-05T22:35:22.431Z,3.77
2019-03-05T22:38:04.815Z,3.00
2019-03-05T22:40:47.027Z,2.93
2019-03-05T22:43:29.209Z,2.70
2019-03-05T22:46:10.818Z,3.37
2019-03-05T22:48:41.269Z,3.07
2019-03-05T22:51:23.771Z,2.93
2019-03-05T22:54:05.670Z,3.90
2019-03-05T22:56:48.021Z,4.40
2019-03-05T22:59:30.063Z,3.77
2019-03-05T23:02:12.143Z,3.87
2019-03-05T23:04:44.829Z,3.90
2019-03-05T23:07:35.744Z,3.97
2019-03-05T23:10:17.369Z,3.27
2019-03-05T23:16:27.612Z,3.90
2019-03-05T23:19:09.890Z,3.93
2019-03-05T23:21:51.824Z,4.00
2019-03-05T23:24:34.285Z,3.50
2019-03-05T23:27:18.461Z,3.47
2019-03-05T23:29:49.136Z,4.17
2019-03-05T23:32:30.629Z,4.20
2019-03-05T23:35:12.670Z,3.80
2019-03-05T23:37:56.033Z,4.07
2019-03-05T23:40:39.986Z,3.97
2019-03-05T23:43:21.715Z,3.93
2019-03-05T23:46:03.719Z,4.30
2019-03-05T23:48:46.139Z,4.73
2019-03-05T23:51:30.263Z,4.90
2019-03-05T23:54:13.571Z,5.00
2019-03-05T23:56:56.582Z,5.33
2019-03-05T23:59:38.949Z,5.63
